Time;durP1;ratioP1;P1;durP2;ratioP2;P2;SDS_P1;SDS_P2;PMS_P1;PMS_P2;Temp;Humidity;BMP_temperature;BMP_pressure;BME280_temperature;BME280_humidity;BME280_pressure;Samples;Min_cycle;Max_cycle;Signal;HPM_P1;HPM_P2
2021/12/09 00:00:43;;;;;;;0.40;0.40;;;4.20;99.90;;;;;;5073075;28;20251;-77
2021/12/09 00:03:11;;;;;;;0.80;0.30;;;4.10;99.90;;;;;;5072540;28;20205;-76
2021/12/09 00:05:42;;;;;;;0.83;0.47;;;4.10;99.90;;;;;;5072677;28;20202;-76
2021/12/09 00:08:09;;;;;;;1.30;0.60;;;4.20;99.90;;;;;;5072772;28;20207;-75
2021/12/09 00:10:36;;;;;;;1.13;0.40;;;4.20;99.90;;;;;;5073071;28;20260;-74
2021/12/09 00:13:06;;;;;;;1.50;0.53;;;4.20;99.90;;;;;;5072554;28;20202;-76
2021/12/09 00:15:35;;;;;;;2.30;1.27;;;4.30;99.90;;;;;;5072743;28;20226;-75
2021/12/09 00:18:02;;;;;;;0.90;0.57;;;4.20;99.90;;;;;;5072372;28;20202;-74
2021/12/09 00:20:29;;;;;;;1.20;0.60;;;4.30;99.90;;;;;;5072366;28;20976;-73
2021/12/09 00:22:56;;;;;;;1.20;0.73;;;4.30;99.90;;;;;;5072077;28;20207;-74
2021/12/09 00:25:24;;;;;;;1.30;1.07;;;4.20;99.90;;;;;;5072375;28;20244;-73
2021/12/09 00:27:52;;;;;;;1.17;0.50;;;4.30;99.90;;;;;;5071792;28;20202;-73
2021/12/09 00:30:21;;;;;;;0.97;0.87;;;4.40;99.90;;;;;;5071877;28;20304;-74
2021/12/09 00:32:49;;;;;;;0.90;0.60;;;4.30;99.90;;;;;;5071902;28;20263;-74
2021/12/09 00:35:17;;;;;;;0.93;0.40;;;4.40;99.90;;;;;;5072277;28;20226;-73
2021/12/09 00:37:55;;;;;;;1.37;0.40;;;4.40;99.90;;;;;;5071603;28;20247;-76
2021/12/09 00:40:22;;;;;;;3.20;0.70;;;4.40;99.90;;;;;;5071836;28;20206;-74
2021/12/09 00:42:49;;;;;;;3.13;0.60;;;4.40;99.90;;;;;;5071462;28;20672;-74
2021/12/09 00:45:16;;;;;;;0.83;0.40;;;4.40;99.90;;;;;;5071796;28;20336;-72
2021/12/09 00:47:45;;;;;;;1.17;0.50;;;4.40;99.90;;;;;;5071567;28;20247;-72
2021/12/09 00:50:12;;;;;;;2.17;1.30;;;4.40;99.90;;;;;;5071680;28;20548;-73
2021/12/09 00:52:39;;;;;;;1.37;0.43;;;4.40;99.90;;;;;;5071298;28;20202;-72
2021/12/09 00:55:08;;;;;;;0.67;0.50;;;4.40;99.90;;;;;;5071416;28;20230;-72
2021/12/09 00:57:37;;;;;;;2.30;0.87;;;4.40;99.90;;;;;;5072172;28;20202;-72
2021/12/09 01:00:05;;;;;;;0.67;0.20;;;4.50;99.90;;;;;;5071575;28;20604;-72
2021/12/09 01:02:33;;;;;;;1.50;0.87;;;4.50;99.90;;;;;;5071987;28;20623;-71
2021/12/09 01:05:01;;;;;;;0.47;0.20;;;4.50;99.90;;;;;;5071034;28;20612;-70
2021/12/09 01:07:28;;;;;;;0.43;0.30;;;4.50;99.90;;;;;;5071152;28;20198;-70
2021/12/09 01:09:55;;;;;;;0.40;0.20;;;4.50;99.90;;;;;;5071249;28;20206;-72
2021/12/09 01:12:22;;;;;;;0.37;0.20;;;4.50;99.90;;;;;;5071445;28;20202;-72
2021/12/09 01:14:49;;;;;;;0.40;0.40;;;4.40;99.90;;;;;;5070851;28;20206;-71
2021/12/09 01:17:16;;;;;;;0.60;0.60;;;4.50;99.90;;;;;;5071307;28;20260;-69
2021/12/09 01:19:43;;;;;;;2.07;0.50;;;4.40;99.90;;;;;;5070827;28;20206;-69
2021/12/09 01:22:12;;;;;;;0.67;0.33;;;4.40;99.90;;;;;;5071114;28;20210;-70
2021/12/09 01:24:39;;;;;;;1.23;0.30;;;4.40;99.90;;;;;;5070518;28;20687;-72
2021/12/09 01:27:06;;;;;;;0.20;0.20;;;4.50;99.90;;;;;;5071510;28;20704;-72
2021/12/09 01:29:36;;;;;;;0.30;0.30;;;4.40;99.90;;;;;;5071227;28;20692;-72
2021/12/09 01:32:07;;;;;;;1.93;0.77;;;4.40;99.90;;;;;;5071654;28;20204;-73
2021/12/09 01:34:35;;;;;;;0.80;0.60;;;4.40;99.90;;;;;;5071315;28;20715;-72
2021/12/09 01:37:02;;;;;;;2.37;0.67;;;4.40;99.90;;;;;;5070889;28;20233;-74
2021/12/09 01:39:31;;;;;;;0.53;0.30;;;4.40;99.90;;;;;;5071192;28;20202;-75
2021/12/09 01:41:58;;;;;;;1.23;0.30;;;4.30;99.90;;;;;;5070440;28;20301;-73
2021/12/09 01:44:27;;;;;;;0.57;0.53;;;4.40;99.90;;;;;;5070906;28;20232;-72
2021/12/09 01:46:56;;;;;;;2.10;1.37;;;4.40;99.90;;;;;;5070549;28;20628;-70
2021/12/09 01:49:23;;;;;;;0.43;0.30;;;4.40;99.90;;;;;;5070910;28;20255;-70
2021/12/09 01:51:50;;;;;;;1.83;0.30;;;4.30;99.90;;;;;;5070789;28;20256;-71
2021/12/09 01:54:18;;;;;;;1.80;0.40;;;4.30;99.90;;;;;;5070688;28;20207;-73
2021/12/09 01:56:47;;;;;;;1.90;0.37;;;4.30;99.90;;;;;;5070334;28;20287;-74
2021/12/09 01:59:14;;;;;;;0.50;0.30;;;4.30;99.90;;;;;;5070490;28;20206;-73
2021/12/09 02:01:41;;;;;;;1.53;0.30;;;4.30;99.90;;;;;;5070351;28;20734;-73
2021/12/09 02:04:10;;;;;;;0.40;0.20;;;4.30;99.90;;;;;;5070662;28;20198;-74
2021/12/09 02:06:40;;;;;;;0.53;0.20;;;4.20;99.90;;;;;;5070580;28;20617;-73
2021/12/09 02:09:08;;;;;;;0.20;0.20;;;4.30;99.90;;;;;;5070562;28;20202;-76
2021/12/09 02:11:35;;;;;;;0.60;0.37;;;4.30;99.90;;;;;;5071026;28;20202;-72
2021/12/09 02:14:04;;;;;;;0.57;0.23;;;4.20;99.90;;;;;;5070512;28;20212;-74
2021/12/09 02:16:32;;;;;;;1.80;0.30;;;4.30;99.90;;;;;;5070860;28;20297;-74
2021/12/09 02:18:59;;;;;;;0.40;0.20;;;4.20;99.90;;;;;;5070326;28;20233;-74
2021/12/09 02:21:30;;;;;;;0.90;0.30;;;4.20;99.90;;;;;;5069767;28;20210;-74
2021/12/09 02:23:59;;;;;;;1.60;0.30;;;4.20;99.90;;;;;;5070272;28;20209;-74
2021/12/09 02:26:29;;;;;;;0.50;0.20;;;4.20;99.90;;;;;;5070205;28;20619;-74
2021/12/09 02:28:57;;;;;;;0.30;0.20;;;4.20;99.90;;;;;;5070754;28;20267;-71
2021/12/09 02:31:26;;;;;;;1.33;0.30;;;4.20;99.90;;;;;;5070589;28;20210;-72
2021/12/09 02:33:53;;;;;;;1.87;0.30;;;4.20;99.90;;;;;;5069998;28;20255;-72
2021/12/09 02:36:21;;;;;;;0.33;0.30;;;4.20;99.90;;;;;;5072652;28;20230;-73
2021/12/09 02:38:50;;;;;;;0.67;0.30;;;4.30;99.90;;;;;;5073809;28;20255;-73
2021/12/09 02:41:20;;;;;;;0.40;0.20;;;4.30;99.90;;;;;;5073865;28;20259;-73
2021/12/09 02:43:49;;;;;;;0.40;0.20;;;4.30;99.90;;;;;;5074024;28;20206;-71
2021/12/09 02:46:17;;;;;;;0.10;0.10;;;4.20;99.90;;;;;;5074326;28;20206;-71
2021/12/09 02:48:45;;;;;;;0.20;0.20;;;4.20;99.90;;;;;;5073788;28;20210;-72
2021/12/09 02:51:13;;;;;;;0.30;0.20;;;4.10;99.90;;;;;;5074109;28;20252;-72
2021/12/09 02:53:41;;;;;;;0.73;0.10;;;4.10;99.90;;;;;;5073580;28;20665;-72
2021/12/09 02:56:10;;;;;;;0.30;0.20;;;4.00;99.90;;;;;;5073626;28;20271;-72
2021/12/09 02:58:37;;;;;;;0.30;0.20;;;3.90;99.90;;;;;;5074146;28;20202;-72
2021/12/09 03:01:12;;;;;;;0.20;0.20;;;3.80;99.90;;;;;;5074132;28;20206;-72
2021/12/09 03:03:45;;;;;;;0.20;0.20;;;3.80;99.90;;;;;;5073451;28;20202;-71
2021/12/09 03:06:13;;;;;;;0.80;0.20;;;3.90;1.00;;;;;;5073655;28;20214;-73
2021/12/09 03:08:42;;;;;;;1.97;0.70;;;3.90;99.90;;;;;;5073238;28;20202;-73
2021/12/09 03:11:13;;;;;;;0.33;0.17;;;4.00;1.00;;;;;;5073592;28;20209;-73
2021/12/09 03:13:42;;;;;;;1.80;0.70;;;4.00;1.00;;;;;;5073280;28;20210;-70
2021/12/09 03:16:09;;;;;;;1.73;0.60;;;4.10;1.00;;;;;;5073497;28;20283;-71
2021/12/09 03:18:40;;;;;;;0.40;0.30;;;4.10;1.00;;;;;;5073428;28;20205;-71
2021/12/09 03:21:14;;;;;;;0.60;0.30;;;4.20;1.00;;;;;;5073490;28;20625;-71
2021/12/09 03:23:42;;;;;;;1.17;0.37;;;4.20;1.00;;;;;;5073101;28;20292;-70
2021/12/09 03:26:10;;;;;;;0.40;0.40;;;4.20;1.00;;;;;;5073251;28;20669;-71
2021/12/09 03:28:37;;;;;;;0.67;0.50;;;4.20;1.00;;;;;;5073454;28;20259;-71
2021/12/09 03:31:04;;;;;;;1.43;0.50;;;4.10;1.00;;;;;;5073471;28;20565;-72
2021/12/09 03:33:31;;;;;;;1.30;0.60;;;4.20;1.00;;;;;;5073468;28;20202;-71
2021/12/09 03:35:59;;;;;;;0.70;0.30;;;4.20;1.00;;;;;;5072787;28;20233;-71
2021/12/09 03:38:26;;;;;;;1.13;0.50;;;4.20;1.00;;;;;;5073170;28;20550;-72
2021/12/09 03:40:54;;;;;;;0.87;0.83;;;4.10;1.00;;;;;;5072604;28;20267;-72
2021/12/09 03:43:22;;;;;;;1.43;0.53;;;4.20;1.00;;;;;;5073048;28;20252;-72
2021/12/09 03:45:53;;;;;;;3.23;0.73;;;4.20;1.00;;;;;;5072632;28;20202;-71
2021/12/09 03:48:20;;;;;;;1.33;0.80;;;4.10;1.00;;;;;;5072281;28;20195;-71
2021/12/09 03:50:47;;;;;;;3.53;1.13;;;4.00;1.00;;;;;;5072718;28;20206;-71
2021/12/09 03:53:14;;;;;;;0.80;0.50;;;4.00;1.00;;;;;;5072817;28;20198;-71
2021/12/09 03:55:41;;;;;;;0.97;0.73;;;4.00;1.00;;;;;;5072396;28;20198;-72
2021/12/09 03:58:08;;;;;;;0.93;0.60;;;3.90;1.00;;;;;;5072866;28;20202;-70
2021/12/09 04:00:37;;;;;;;0.70;0.70;;;3.90;1.00;;;;;;5072960;28;20202;-71
2021/12/09 04:03:04;;;;;;;1.03;0.60;;;3.80;1.00;;;;;;5072964;28;20727;-70
2021/12/09 04:05:32;;;;;;;0.50;0.50;;;3.90;1.00;;;;;;5073128;28;20202;-70
2021/12/09 04:07:58;;;;;;;0.87;0.40;;;3.90;1.00;;;;;;5072047;28;20210;-70
2021/12/09 04:10:26;;;;;;;2.77;0.97;;;3.90;1.00;;;;;;5072695;28;20829;-72
2021/12/09 04:12:53;;;;;;;1.30;0.50;;;3.80;1.00;;;;;;5072161;28;20201;-71
2021/12/09 04:15:20;;;;;;;0.87;0.50;;;3.90;1.00;;;;;;5072511;28;20259;-70
2021/12/09 04:17:48;;;;;;;0.63;0.40;;;3.90;1.00;;;;;;5071801;28;20657;-71
2021/12/09 04:20:16;;;;;;;0.80;0.50;;;3.90;1.00;;;;;;5072310;28;20206;-72
2021/12/09 04:22:48;;;;;;;2.10;1.43;;;3.90;1.00;;;;;;5071595;28;20202;-72
2021/12/09 04:25:16;;;;;;;2.20;0.77;;;4.00;1.00;;;;;;5072264;28;20213;-72
2021/12/09 04:27:43;;;;;;;1.40;0.60;;;4.00;1.00;;;;;;5071782;28;20673;-72
2021/12/09 04:30:11;;;;;;;2.57;0.50;;;4.00;1.00;;;;;;5072350;28;20206;-72
2021/12/09 04:32:38;;;;;;;0.80;0.43;;;4.00;1.00;;;;;;5072091;28;20206;-72
2021/12/09 04:35:07;;;;;;;1.00;0.40;;;4.00;1.00;;;;;;5072437;28;20252;-72
2021/12/09 04:37:35;;;;;;;1.23;0.40;;;4.00;1.00;;;;;;5071981;28;20708;-72
2021/12/09 04:40:02;;;;;;;1.90;1.03;;;4.10;1.00;;;;;;5071883;28;20202;-73
2021/12/09 04:42:30;;;;;;;1.27;0.50;;;4.20;1.00;;;;;;5071735;28;20222;-72
2021/12/09 04:44:57;;;;;;;0.83;0.30;;;4.10;1.00;;;;;;5071755;28;20694;-71
2021/12/09 04:47:24;;;;;;;3.57;1.23;;;4.10;1.00;;;;;;5071837;28;20202;-71
2021/12/09 04:49:52;;;;;;;1.70;0.67;;;4.00;1.00;;;;;;5071311;28;20206;-70
2021/12/09 04:52:20;;;;;;;1.80;0.43;;;4.10;1.00;;;;;;5071536;28;20264;-72
2021/12/09 04:54:47;;;;;;;0.80;0.40;;;4.10;1.00;;;;;;5071089;28;20260;-72
2021/12/09 04:57:15;;;;;;;1.37;0.70;;;4.00;1.00;;;;;;5071838;28;20233;-73
2021/12/09 04:59:43;;;;;;;0.87;0.40;;;4.00;1.00;;;;;;5070411;28;20206;-72
2021/12/09 05:02:17;;;;;;;1.73;0.50;;;3.90;1.00;;;;;;5071506;28;20206;-70
2021/12/09 05:04:44;;;;;;;0.30;0.30;;;3.80;1.00;;;;;;5071142;28;20213;-70
2021/12/09 05:07:11;;;;;;;2.63;1.10;;;3.80;1.00;;;;;;5070974;28;20666;-71
2021/12/09 05:09:49;;;;;;;4.10;0.80;;;3.80;1.00;;;;;;5070969;28;20727;-72
2021/12/09 05:12:16;;;;;;;2.07;0.57;;;3.70;1.00;;;;;;5071454;28;20206;-70
2021/12/09 05:14:45;;;;;;;0.40;0.30;;;3.60;1.00;;;;;;5071045;28;20209;-70
2021/12/09 05:17:12;;;;;;;0.40;0.40;;;3.60;1.00;;;;;;5071177;28;20230;-70
2021/12/09 05:19:39;;;;;;;1.53;0.70;;;3.60;1.00;;;;;;5070563;28;20259;-71
2021/12/09 05:22:06;;;;;;;1.53;1.43;;;3.50;1.00;;;;;;5071056;28;20202;-72
2021/12/09 05:24:34;;;;;;;1.50;0.40;;;3.50;1.00;;;;;;5071480;28;20568;-72
2021/12/09 05:27:03;;;;;;;1.23;0.60;;;3.40;1.00;;;;;;5071303;28;20297;-72
2021/12/09 05:29:37;;;;;;;2.13;0.87;;;3.60;1.00;;;;;;5071283;28;20199;-72
2021/12/09 05:32:11;;;;;;;2.30;0.87;;;3.70;1.00;;;;;;5071418;28;20615;-69
2021/12/09 05:34:40;;;;;;;2.53;0.57;;;3.80;1.00;;;;;;5070617;28;20661;-69
2021/12/09 05:37:09;;;;;;;1.93;0.93;;;3.80;1.00;;;;;;5070977;28;20301;-72
2021/12/09 05:39:37;;;;;;;3.60;0.70;;;3.90;1.00;;;;;;5071364;28;20202;-72
2021/12/09 05:42:07;;;;;;;0.40;0.30;;;3.90;1.00;;;;;;5071136;28;20214;-73
2021/12/09 05:44:34;;;;;;;0.83;0.57;;;3.90;1.00;;;;;;5071201;28;20209;-73
2021/12/09 05:47:05;;;;;;;0.57;0.40;;;3.90;1.00;;;;;;5070730;28;20292;-72
2021/12/09 05:49:33;;;;;;;3.23;0.50;;;3.90;1.00;;;;;;5070964;28;20248;-72
2021/12/09 05:52:01;;;;;;;1.23;0.33;;;3.90;1.00;;;;;;5070628;28;20259;-73
2021/12/09 05:54:33;;;;;;;0.50;0.33;;;3.90;1.00;;;;;;5072531;28;20201;-73
2021/12/09 05:57:00;;;;;;;1.03;0.40;;;3.90;1.00;;;;;;5087169;28;20626;-73
2021/12/09 05:59:30;;;;;;;0.70;0.40;;;4.00;1.00;;;;;;5086932;28;20891;-74
2021/12/09 06:01:58;;;;;;;1.07;0.33;;;3.80;1.00;;;;;;5083129;28;20692;-73
2021/12/09 06:04:25;;;;;;;1.00;0.60;;;3.80;1.00;;;;;;5090513;28;20266;-74
2021/12/09 06:06:54;;;;;;;3.30;0.30;;;3.60;1.00;;;;;;5090309;28;20209;-74
2021/12/09 06:09:21;;;;;;;0.57;0.30;;;3.50;1.00;;;;;;5090651;28;20209;-73
2021/12/09 06:11:50;;;;;;;1.00;0.40;;;3.40;1.00;;;;;;5093209;28;20258;-73
2021/12/09 06:14:17;;;;;;;0.77;0.33;;;3.30;1.00;;;;;;5092299;28;20690;-73
2021/12/09 06:16:46;;;;;;;1.03;0.50;;;3.30;1.00;;;;;;5094498;28;20221;-73
2021/12/09 06:19:14;;;;;;;3.80;0.30;;;3.30;1.00;;;;;;5094610;28;20205;-73
2021/12/09 06:21:41;;;;;;;2.43;0.50;;;3.20;1.00;;;;;;5094258;28;20206;-73
2021/12/09 06:24:08;;;;;;;1.23;0.40;;;3.20;1.00;;;;;;5094402;28;20590;-73
2021/12/09 06:26:35;;;;;;;1.50;0.60;;;3.20;1.00;;;;;;5094652;28;20209;-73
2021/12/09 06:29:05;;;;;;;1.07;0.40;;;3.10;1.00;;;;;;5094647;28;20202;-73
2021/12/09 06:31:32;;;;;;;0.70;0.40;;;3.20;1.00;;;;;;5095273;28;20219;-73
2021/12/09 06:34:01;;;;;;;0.93;0.77;;;3.20;1.00;;;;;;5093959;28;20209;-73
2021/12/09 06:36:28;;;;;;;1.07;0.90;;;3.20;1.00;;;;;;5094481;28;20209;-73
2021/12/09 06:38:56;;;;;;;1.60;0.50;;;3.20;1.00;;;;;;5093891;28;20205;-73
2021/12/09 06:41:24;;;;;;;2.63;1.33;;;3.20;1.00;;;;;;5093984;28;20210;-74
2021/12/09 06:43:51;;;;;;;1.53;0.57;;;3.30;1.00;;;;;;5094047;28;20205;-74
2021/12/09 06:46:17;;;;;;;2.27;0.40;;;3.20;1.00;;;;;;5094137;28;20259;-73
2021/12/09 06:48:44;;;;;;;1.07;0.67;;;3.20;1.00;;;;;;5092786;28;20263;-73
2021/12/09 06:51:13;;;;;;;1.80;0.40;;;3.30;1.00;;;;;;5090457;28;20201;-73
2021/12/09 06:53:40;;;;;;;2.83;1.40;;;3.20;1.00;;;;;;5093683;28;20288;-73
2021/12/09 06:56:09;;;;;;;1.70;0.80;;;3.20;1.00;;;;;;5080153;28;20213;-74
2021/12/09 06:58:36;;;;;;;2.23;0.70;;;3.10;1.00;;;;;;5094214;28;20233;-73
2021/12/09 07:01:04;;;;;;;1.67;0.50;;;3.10;1.00;;;;;;5094299;28;20209;-72
2021/12/09 07:03:32;;;;;;;2.47;1.53;;;3.00;1.00;;;;;;5093825;28;20210;-74
2021/12/09 07:06:05;;;;;;;3.43;0.63;;;3.00;1.00;;;;;;5093182;28;20631;-73
2021/12/09 07:08:35;;;;;;;0.77;0.53;;;3.00;1.00;;;;;;5094122;28;20220;-73
2021/12/09 07:11:03;;;;;;;1.90;0.83;;;2.90;1.00;;;;;;5093752;28;20656;-73
2021/12/09 07:13:31;;;;;;;1.37;0.70;;;2.90;1.00;;;;;;5093744;28;20205;-73
2021/12/09 07:15:58;;;;;;;1.27;0.57;;;2.90;1.00;;;;;;5092951;28;20970;-73
2021/12/09 07:18:26;;;;;;;2.30;0.63;;;3.00;1.00;;;;;;5093342;28;20294;-73
2021/12/09 07:20:53;;;;;;;1.10;1.00;;;2.90;1.00;;;;;;5092836;28;20261;-73
2021/12/09 07:23:20;;;;;;;2.10;0.53;;;2.90;1.00;;;;;;5092643;28;20201;-73
2021/12/09 07:25:49;;;;;;;4.03;0.67;;;3.00;1.00;;;;;;5092997;28;20201;-73
2021/12/09 07:28:17;;;;;;;2.13;1.03;;;2.90;1.00;;;;;;5093475;28;20286;-73
2021/12/09 07:30:44;;;;;;;1.47;0.50;;;3.00;1.00;;;;;;5092698;28;20216;-74
2021/12/09 07:33:12;;;;;;;1.43;0.70;;;3.00;1.00;;;;;;5092980;28;20263;-73
2021/12/09 07:35:40;;;;;;;3.37;0.97;;;3.10;1.00;;;;;;5092905;28;20621;-73
2021/12/09 07:38:08;;;;;;;1.23;0.80;;;3.10;1.00;;;;;;5092855;28;20675;-73
2021/12/09 07:40:36;;;;;;;8.33;2.07;;;3.20;1.00;;;;;;5093453;28;20249;-73
2021/12/09 07:43:05;;;;;;;1.57;0.63;;;3.30;1.00;;;;;;5093288;28;20244;-73
2021/12/09 07:45:33;;;;;;;2.23;1.20;;;3.40;1.00;;;;;;5093027;28;20254;-73
2021/12/09 07:48:00;;;;;;;3.70;0.97;;;3.50;1.00;;;;;;5073660;28;20665;-73
2021/12/09 07:50:31;;;;;;;1.67;0.90;;;3.60;1.00;;;;;;5071251;28;20202;-74
2021/12/09 07:52:59;;;;;;;4.90;1.90;;;3.90;1.00;;;;;;5071145;28;20217;-74
2021/12/09 07:55:27;;;;;;;2.37;1.03;;;4.10;1.00;;;;;;5072986;28;20612;-73
2021/12/09 07:57:54;;;;;;;1.80;1.00;;;4.10;1.00;;;;;;5072485;28;20291;-73
2021/12/09 08:00:25;;;;;;;8.30;1.53;;;4.10;1.00;;;;;;5072438;28;20754;-74
2021/12/09 08:02:53;;;;;;;1.60;1.10;;;4.20;1.00;;;;;;5072242;28;20617;-75
2021/12/09 08:05:21;;;;;;;2.93;1.43;;;4.30;1.00;;;;;;5072944;28;20202;-74
2021/12/09 08:07:48;;;;;;;4.23;1.97;;;4.40;1.00;;;;;;5072256;28;20202;-73
2021/12/09 08:10:17;;;;;;;5.23;2.07;;;4.70;1.00;;;;;;5072661;28;20662;-73
2021/12/09 08:12:45;;;;;;;6.83;2.33;;;4.60;1.00;;;;;;5071444;28;20556;-77
2021/12/09 08:15:15;;;;;;;8.27;3.90;;;4.70;1.00;;;;;;5071878;28;20643;-76
2021/12/09 08:18:02;;;;;;;7.40;1.70;;;5.00;1.00;;;;;;5076696;28;20343;-76
2021/12/09 08:20:30;;;;;;;2.97;1.27;;;5.20;1.00;;;;;;5084387;28;20203;-76
2021/12/09 08:22:57;;;;;;;2.87;1.27;;;5.40;99.90;;;;;;5081128;28;20206;-75
2021/12/09 08:25:25;;;;;;;5.60;3.07;;;6.00;99.90;;;;;;5078502;28;20298;-75
2021/12/09 08:27:52;;;;;;;3.10;1.53;;;6.40;99.90;;;;;;5092018;28;20566;-76
2021/12/09 08:30:21;;;;;;;3.47;1.10;;;6.20;99.90;;;;;;5092362;28;20209;-77
2021/12/09 08:32:53;;;;;;;2.33;1.00;;;6.20;99.90;;;;;;5082025;28;20206;-78
2021/12/09 08:35:20;;;;;;;1.90;1.30;;;6.20;99.90;;;;;;5071718;28;20202;-77
2021/12/09 08:37:48;;;;;;;3.40;1.43;;;6.40;99.90;;;;;;5081707;28;20278;-76
2021/12/09 08:40:17;;;;;;;1.30;0.90;;;6.20;99.90;;;;;;5072181;28;20609;-76
2021/12/09 08:42:45;;;;;;;1.63;1.07;;;6.00;99.90;;;;;;5081106;28;20206;-78
2021/12/09 08:45:13;;;;;;;1.50;1.10;;;6.00;99.90;;;;;;5077311;28;20559;-79
2021/12/09 08:47:42;;;;;;;3.57;1.03;;;6.10;99.90;;;;;;5077793;28;20205;-79
2021/12/09 08:50:14;;;;;;;5.60;2.40;;;6.20;99.90;;;;;;5085326;28;20710;-78
2021/12/09 08:52:41;;;;;;;1.20;1.03;;;6.30;99.90;;;;;;5087990;28;20250;-78
2021/12/09 08:55:09;;;;;;;1.07;0.87;;;6.50;99.90;;;;;;5078828;28;20622;-78
2021/12/09 08:57:37;;;;;;;5.10;1.40;;;6.70;99.90;;;;;;5085110;28;20224;-78
2021/12/09 09:00:07;;;;;;;3.03;1.00;;;6.80;99.90;;;;;;5076759;28;20209;-79
2021/12/09 09:02:34;;;;;;;2.67;1.33;;;7.00;99.90;;;;;;5088373;28;20205;-78
2021/12/09 09:05:01;;;;;;;2.20;1.33;;;6.90;99.90;;;;;;5089864;28;20587;-78
2021/12/09 09:07:30;;;;;;;2.17;0.60;;;6.60;99.90;;;;;;5082584;28;20205;-79
2021/12/09 09:09:57;;;;;;;1.83;1.17;;;6.40;99.90;;;;;;5087786;28;20209;-78
2021/12/09 09:12:24;;;;;;;3.43;1.10;;;6.60;99.90;;;;;;5090755;28;20616;-78
2021/12/09 09:14:51;;;;;;;1.77;0.60;;;6.80;99.90;;;;;;5090599;28;20630;-78
2021/12/09 09:17:18;;;;;;;3.70;0.90;;;6.80;99.90;;;;;;5090995;28;20246;-78
2021/12/09 09:19:45;;;;;;;6.00;0.60;;;6.90;99.90;;;;;;5090927;28;20266;-78
2021/12/09 09:22:13;;;;;;;1.83;0.70;;;7.10;99.90;;;;;;5091185;28;20588;-78
2021/12/09 09:24:41;;;;;;;2.97;0.70;;;7.00;99.90;;;;;;5087877;28;20214;-78
2021/12/09 09:27:08;;;;;;;1.80;1.17;;;7.00;99.90;;;;;;5070544;28;20694;-78
2021/12/09 09:29:40;;;;;;;3.37;0.90;;;7.00;99.90;;;;;;5071236;28;20715;-78
2021/12/09 09:32:10;;;;;;;1.87;0.77;;;6.80;99.90;;;;;;5085999;28;20632;-78
2021/12/09 09:34:38;;;;;;;1.77;1.20;;;6.80;99.90;;;;;;5091227;28;20262;-78
2021/12/09 09:37:05;;;;;;;2.80;0.97;;;6.80;99.90;;;;;;5091462;28;20251;-78
2021/12/09 09:39:33;;;;;;;0.97;0.70;;;6.80;99.90;;;;;;5091785;28;20237;-79
2021/12/09 09:42:20;;;;;;;0.80;0.40;;;7.00;99.90;;;;;;5090023;28;20680;-79
2021/12/09 09:44:55;;;;;;;1.40;0.60;;;7.30;99.90;;;;;;5090207;28;20202;-78
2021/12/09 09:47:23;;;;;;;1.03;0.50;;;7.50;99.90;;;;;;5090918;28;20233;-78
2021/12/09 09:49:51;;;;;;;4.50;1.03;;;7.30;99.90;;;;;;5072797;28;20572;-79
2021/12/09 09:52:19;;;;;;;1.67;0.87;;;7.40;99.90;;;;;;5076337;28;20327;-77
2021/12/09 09:54:48;;;;;;;2.73;0.90;;;7.30;99.90;;;;;;5081947;28;20201;-78
2021/12/09 09:57:17;;;;;;;2.80;1.67;;;7.40;99.90;;;;;;5084617;28;20611;-79
2021/12/09 09:59:44;;;;;;;4.00;0.93;;;7.40;99.90;;;;;;5090307;28;20237;-75
2021/12/09 10:02:13;;;;;;;2.10;0.70;;;7.40;99.90;;;;;;5084424;28;20271;-78
2021/12/09 10:04:46;;;;;;;1.17;0.80;;;7.30;99.90;;;;;;5078540;28;20206;-78
2021/12/09 10:07:15;;;;;;;3.83;1.20;;;7.20;99.90;;;;;;5090592;28;20201;-78
2021/12/09 10:09:42;;;;;;;1.50;0.60;;;7.20;99.90;;;;;;5075632;28;20273;-78
2021/12/09 10:12:10;;;;;;;3.27;1.10;;;7.20;99.90;;;;;;5087662;28;20258;-79
2021/12/09 10:14:39;;;;;;;3.33;1.67;;;7.30;99.90;;;;;;5082762;28;20218;-74
2021/12/09 10:17:08;;;;;;;3.47;1.83;;;7.50;99.90;;;;;;5076825;28;20250;-75
2021/12/09 10:19:37;;;;;;;3.57;1.07;;;7.60;99.90;;;;;;5081284;28;20233;-74
2021/12/09 10:22:07;;;;;;;3.07;1.50;;;7.70;99.90;;;;;;5087108;28;20205;-74
2021/12/09 10:24:35;;;;;;;1.73;0.80;;;7.60;99.90;;;;;;5077777;28;20206;-75
2021/12/09 10:27:02;;;;;;;3.03;1.00;;;7.50;99.90;;;;;;5080569;28;20198;-74
2021/12/09 10:29:32;;;;;;;3.63;2.60;;;7.50;99.90;;;;;;5090048;28;20217;-75
2021/12/09 10:32:03;;;;;;;4.10;1.20;;;7.40;99.90;;;;;;5081646;28;20209;-74
2021/12/09 10:34:35;;;;;;;2.23;1.40;;;7.40;99.90;;;;;;5089169;28;20250;-74
2021/12/09 10:37:05;;;;;;;2.23;0.90;;;7.40;99.90;;;;;;5079945;28;20205;-74
2021/12/09 10:39:36;;;;;;;1.67;0.60;;;7.40;99.90;;;;;;5076572;28;20740;-74
2021/12/09 10:42:06;;;;;;;2.57;0.60;;;7.40;99.90;;;;;;5089840;28;20300;-75
2021/12/09 10:44:40;;;;;;;2.17;1.53;;;7.40;99.90;;;;;;5089851;28;20293;-74
2021/12/09 10:47:14;;;;;;;3.80;0.80;;;7.60;99.90;;;;;;5090280;28;20288;-74
2021/12/09 10:49:50;;;;;;;4.67;1.13;;;7.60;99.90;;;;;;5087248;28;20236;-74
2021/12/09 10:52:29;;;;;;;4.00;1.47;;;7.80;99.90;;;;;;5080041;28;20201;-75
2021/12/09 10:54:57;;;;;;;4.43;1.33;;;7.90;99.90;;;;;;5082113;28;20708;-75
2021/12/09 10:57:29;;;;;;;4.67;1.10;;;8.00;99.90;;;;;;5092352;28;20293;-75
2021/12/09 10:59:58;;;;;;;2.73;0.87;;;8.10;99.90;;;;;;5089934;28;20610;-74
2021/12/09 11:02:26;;;;;;;3.40;2.03;;;8.10;99.90;;;;;;5094187;28;20209;-74
2021/12/09 11:05:07;;;;;;;7.13;1.67;;;8.10;99.90;;;;;;5086510;28;20735;-74
2021/12/09 11:07:34;;;;;;;2.33;1.83;;;8.30;99.90;;;;;;5076387;28;20214;-75
2021/12/09 11:10:19;;;;;;;2.50;1.70;;;8.30;99.90;;;;;;5080514;28;20205;-75
2021/12/09 11:12:54;;;;;;;2.50;1.07;;;8.30;99.90;;;;;;5083924;28;20198;-75
2021/12/09 11:15:22;;;;;;;4.13;1.53;;;8.40;99.90;;;;;;5087859;28;20263;-75
2021/12/09 11:17:53;;;;;;;12.53;2.07;;;8.60;99.90;;;;;;5082965;28;20198;-74
2021/12/09 11:20:44;;;;;;;1.60;0.90;;;8.60;99.90;;;;;;5091250;28;20210;-75
2021/12/09 11:23:34;;;;;;;3.27;2.20;;;8.60;99.90;;;;;;5079777;28;20212;-75
2021/12/09 11:26:27;;;;;;;1.57;1.17;;;8.50;99.90;;;;;;5090387;28;20201;-76
2021/12/09 11:28:56;;;;;;;5.20;1.67;;;8.60;99.90;;;;;;5078912;28;20634;-75
2021/12/09 11:31:26;;;;;;;1.73;1.07;;;8.70;99.90;;;;;;5088743;28;20206;-76
2021/12/09 11:34:04;;;;;;;5.20;1.10;;;8.60;99.90;;;;;;5088949;28;20687;-76
2021/12/09 11:36:45;;;;;;;3.13;1.10;;;8.60;99.90;;;;;;5092640;28;20213;-78
2021/12/09 11:39:19;;;;;;;1.47;0.90;;;8.60;99.90;;;;;;5078468;28;20230;-76
2021/12/09 11:41:47;;;;;;;3.27;1.20;;;8.50;99.90;;;;;;5104277;28;20271;-77
2021/12/09 11:44:15;;;;;;;4.17;1.27;;;8.50;99.90;;;;;;5089435;28;20570;-77
2021/12/09 11:46:44;;;;;;;2.10;1.07;;;8.60;99.90;;;;;;5082150;28;20201;-77
2021/12/09 11:49:13;;;;;;;4.73;1.07;;;8.60;99.90;;;;;;5078440;28;20263;-76
2021/12/09 11:51:41;;;;;;;2.73;1.10;;;8.60;99.90;;;;;;5087985;28;20213;-76
2021/12/09 11:54:09;;;;;;;2.50;1.30;;;8.70;99.90;;;;;;5093492;28;20587;-75
2021/12/09 11:56:55;;;;;;;3.03;1.67;;;8.70;99.90;;;;;;5084394;28;20208;-76
2021/12/09 12:11:07;;;;;;;1.97;1.77;;;9.00;99.90;;;;;;5071946;28;20209;-78
2021/12/09 12:11:18;;;;;;;3.80;2.20;;;8.90;99.90;;;;;;5080303;28;20201;-77
2021/12/09 12:13:52;;;;;;;4.87;1.37;;;9.10;99.90;;;;;;5099258;28;20201;-76
2021/12/09 12:16:46;;;;;;;3.67;2.27;;;9.10;99.90;;;;;;5092163;28;20702;-76
2021/12/09 12:19:24;;;;;;;7.33;1.30;;;9.00;99.90;;;;;;5071916;28;20593;-74
2021/12/09 12:22:08;;;;;;;2.40;1.30;;;9.00;99.90;;;;;;5077132;28;20205;-76
2021/12/09 12:27:45;;;;;;;4.27;1.30;;;9.40;99.90;;;;;;5083029;28;20207;-79
2021/12/09 12:33:11;;;;;;;3.07;1.20;;;9.20;99.90;;;;;;5069272;28;20212;-80
2021/12/09 12:36:05;;;;;;;1.73;0.90;;;9.00;99.90;;;;;;5079689;28;20217;-78
2021/12/09 12:41:24;;;;;;;4.47;1.57;;;8.80;99.90;;;;;;5086349;28;20251;-79
2021/12/09 12:43:56;;;;;;;3.50;1.10;;;8.70;99.90;;;;;;5091766;28;20610;-78
2021/12/09 12:46:45;;;;;;;3.87;1.37;;;8.60;99.90;;;;;;5092301;28;20664;-79
2021/12/09 12:49:20;;;;;;;4.40;2.67;;;8.60;99.90;;;;;;5091085;28;20231;-79
2021/12/09 12:51:54;;;;;;;3.73;1.97;;;8.50;99.90;;;;;;5091370;28;20625;-79
2021/12/09 12:54:36;;;;;;;1.63;0.97;;;8.60;99.90;;;;;;5092121;28;20209;-80
2021/12/09 12:57:12;;;;;;;5.83;1.70;;;8.60;99.90;;;;;;5091169;28;20292;-79
2021/12/09 12:59:41;;;;;;;4.70;1.80;;;8.60;99.90;;;;;;5091278;28;20233;-80
2021/12/09 13:02:52;;;;;;;4.93;1.70;;;8.60;99.90;;;;;;5091881;28;20201;-78
2021/12/09 13:05:53;;;;;;;4.17;1.37;;;8.70;99.90;;;;;;5091562;28;20294;-77
2021/12/09 13:08:47;;;;;;;2.10;1.17;;;8.70;99.90;;;;;;5090310;28;20288;-79
2021/12/09 13:11:24;;;;;;;6.13;1.17;;;8.60;99.90;;;;;;5092186;28;20204;-79
2021/12/09 13:14:01;;;;;;;5.17;1.40;;;8.60;99.90;;;;;;5091506;28;20239;-80
2021/12/09 13:16:43;;;;;;;5.07;1.57;;;8.50;99.90;;;;;;5089483;28;20205;-76
2021/12/09 13:19:33;;;;;;;4.33;1.60;;;8.50;99.90;;;;;;5071200;28;20917;-78
2021/12/09 13:22:02;;;;;;;4.60;1.53;;;8.60;99.90;;;;;;5070720;28;20206;-78
2021/12/09 13:24:39;;;;;;;3.97;1.23;;;8.50;99.90;;;;;;5071538;28;20198;-79
2021/12/09 13:27:17;;;;;;;3.57;1.43;;;8.40;99.90;;;;;;5087001;28;20208;-77
2021/12/09 13:29:53;;;;;;;4.30;1.30;;;8.30;99.90;;;;;;5073468;28;20210;-77
2021/12/09 13:32:54;;;;;;;6.83;3.27;;;8.30;99.90;;;;;;5086768;28;20304;-77